createdAt,value
2019-02-17T00:01:22.926Z,15.83
2019-02-17T00:03:53.346Z,15.07
2019-02-17T00:06:24.039Z,15.43
2019-02-17T00:08:54.709Z,15.63
2019-02-17T00:11:25.223Z,15.10
2019-02-17T00:13:55.491Z,15.10
2019-02-17T00:16:25.849Z,15.67
2019-02-17T00:18:56.495Z,15.07
2019-02-17T00:21:26.853Z,15.03
2019-02-17T00:23:57.117Z,15.07
2019-02-17T00:26:27.496Z,16.10
2019-02-17T00:28:59.819Z,14.97
2019-02-17T00:31:30.164Z,14.80
2019-02-17T00:34:00.735Z,15.53
2019-02-17T00:36:31.321Z,15.10
2019-02-17T00:39:01.782Z,13.80
2019-02-17T00:41:33.717Z,14.63
2019-02-17T00:44:04.042Z,15.40
2019-02-17T00:46:34.787Z,15.37
2019-02-17T00:49:05.396Z,14.93
2019-02-17T00:51:35.699Z,15.57
2019-02-17T00:54:06.120Z,14.40
2019-02-17T00:56:36.802Z,14.90
2019-02-17T00:59:10.189Z,14.33
2019-02-17T01:01:39.242Z,16.23
2019-02-17T01:04:10.037Z,16.20
2019-02-17T01:06:40.319Z,15.40
2019-02-17T01:09:10.660Z,14.10
2019-02-17T01:11:41.245Z,14.60
2019-02-17T01:14:12.935Z,15.70
2019-02-17T01:16:43.612Z,15.60
2019-02-17T01:19:13.924Z,15.40
2019-02-17T01:21:44.382Z,15.80
2019-02-17T01:24:14.930Z,15.97
2019-02-17T01:26:45.245Z,15.90
2019-02-17T01:29:20.318Z,15.03
2019-02-17T01:31:47.942Z,16.13
2019-02-17T01:34:18.211Z,15.07
2019-02-17T01:36:48.490Z,16.00
2019-02-17T01:39:19.022Z,17.50
2019-02-17T01:41:49.473Z,15.93
2019-02-17T01:44:19.799Z,17.13
2019-02-17T01:46:50.367Z,17.20
2019-02-17T01:49:20.671Z,17.97
2019-02-17T01:51:51.355Z,17.70
2019-02-17T01:54:21.623Z,16.87
2019-02-17T01:56:51.945Z,16.10
2019-02-17T01:59:30.376Z,16.27
2019-02-17T02:01:55.059Z,17.30
2019-02-17T02:04:25.387Z,16.37
2019-02-17T02:06:56.144Z,15.97
2019-02-17T02:09:27.990Z,17.33
2019-02-17T02:11:58.289Z,17.43
2019-02-17T02:14:28.987Z,16.67
2019-02-17T02:16:59.593Z,17.60
2019-02-17T02:19:29.911Z,17.77
2019-02-17T02:22:00.224Z,17.50
2019-02-17T02:24:30.548Z,17.50
2019-02-17T02:27:01.205Z,16.57
2019-02-17T02:29:40.818Z,16.83
2019-02-17T02:32:04.212Z,17.97
2019-02-17T02:34:34.580Z,15.80
2019-02-17T02:37:05.408Z,18.23
2019-02-17T02:39:35.734Z,17.30
2019-02-17T02:42:06.215Z,18.17
2019-02-17T02:44:37.910Z,17.30
2019-02-17T02:47:08.286Z,17.10
2019-02-17T02:49:38.783Z,18.63
2019-02-17T02:52:10.340Z,19.50
2019-02-17T02:54:41.053Z,17.83
2019-02-17T02:57:11.647Z,20.93
2019-02-17T02:59:52.105Z,18.50
2019-02-17T03:02:14.200Z,18.23
2019-02-17T03:04:44.814Z,17.90
2019-02-17T03:07:18.015Z,18.63
2019-02-17T03:09:48.360Z,19.17
2019-02-17T03:12:19.031Z,18.47
2019-02-17T03:14:49.357Z,18.57
2019-02-17T03:17:20.695Z,17.53
2019-02-17T03:19:51.285Z,18.87
2019-02-17T03:22:21.614Z,19.70
2019-02-17T03:24:52.280Z,19.27
2019-02-17T03:27:23.277Z,17.17
2019-02-17T03:30:04.475Z,18.17
2019-02-17T03:32:25.972Z,20.30
2019-02-17T03:34:56.291Z,18.77
2019-02-17T03:37:26.669Z,21.93
2019-02-17T03:39:57.265Z,19.47
2019-02-17T03:42:27.877Z,17.63
2019-02-17T03:44:58.309Z,18.73
2019-02-17T03:47:28.948Z,19.90
2019-02-17T03:49:59.315Z,20.97
2019-02-17T03:52:29.621Z,30.77
2019-02-17T03:55:00.409Z,20.40
2019-02-17T03:57:31.181Z,33.53
2019-02-17T04:00:01.459Z,27.77
2019-02-17T04:02:32.048Z,22.57
2019-02-17T04:05:02.616Z,22.00
2019-02-17T04:07:33.944Z,20.53
2019-02-17T04:10:04.298Z,20.17
2019-02-17T04:12:34.961Z,20.60
2019-02-17T04:15:05.877Z,19.57
2019-02-17T04:17:36.159Z,22.33
2019-02-17T04:20:06.683Z,30.27
2019-02-17T04:22:37.243Z,27.13
2019-02-17T04:25:08.635Z,22.10
2019-02-17T04:27:39.271Z,19.07
2019-02-17T04:30:09.724Z,20.63
2019-02-17T04:32:40.544Z,21.93
2019-02-17T04:35:10.859Z,19.40
2019-02-17T04:37:41.180Z,22.17
2019-02-17T04:40:11.680Z,20.93
2019-02-17T04:42:42.190Z,20.03
2019-02-17T04:45:12.468Z,19.93
2019-02-17T04:47:43.105Z,22.47
2019-02-17T04:50:13.464Z,21.07
2019-02-17T04:52:43.777Z,22.80
2019-02-17T04:55:14.550Z,21.87
2019-02-17T04:57:45.232Z,22.90
2019-02-17T05:00:15.513Z,21.10
2019-02-17T05:02:45.992Z,24.60
2019-02-17T05:05:16.307Z,24.07
2019-02-17T05:07:46.992Z,21.63
2019-02-17T05:10:17.660Z,20.87
2019-02-17T05:12:47.970Z,27.00
2019-02-17T05:15:18.589Z,25.70
2019-02-17T05:17:48.998Z,23.70
2019-02-17T05:20:19.286Z,22.80
2019-02-17T05:22:49.756Z,23.50
2019-02-17T05:25:20.532Z,23.50
2019-02-17T05:27:50.912Z,26.70
2019-02-17T05:30:21.222Z,24.17
2019-02-17T05:32:51.726Z,26.03
2019-02-17T05:35:22.463Z,25.00
2019-02-17T05:37:52.842Z,27.90
2019-02-17T05:40:23.217Z,27.23
2019-02-17T05:42:53.631Z,30.83
2019-02-17T05:45:24.274Z,28.03
2019-02-17T05:47:54.542Z,28.60
2019-02-17T05:50:24.917Z,28.93
2019-02-17T05:52:55.618Z,30.03
2019-02-17T05:55:25.937Z,27.80
2019-02-17T05:57:56.218Z,29.20
2019-02-17T06:00:30.392Z,29.03
2019-02-17T06:03:00.851Z,28.17
2019-02-17T06:05:31.236Z,29.57
2019-02-17T06:08:01.859Z,32.23
2019-02-17T06:10:32.451Z,30.63
2019-02-17T06:13:02.837Z,29.50
2019-02-17T06:15:33.196Z,37.03
2019-02-17T06:18:03.619Z,36.00
2019-02-17T06:20:33.881Z,33.70
2019-02-17T06:23:04.422Z,32.60
2019-02-17T06:25:35.114Z,31.37
2019-02-17T06:28:05.534Z,31.47
2019-02-17T06:30:35.856Z,31.30
2019-02-17T06:33:06.493Z,34.23
2019-02-17T06:35:36.826Z,36.33
2019-02-17T06:38:07.386Z,39.57
2019-02-17T06:40:37.753Z,51.27
2019-02-17T06:43:08.265Z,53.53
2019-02-17T06:45:38.845Z,53.63
2019-02-17T06:48:09.265Z,47.80
2019-02-17T06:50:39.632Z,50.27
2019-02-17T06:53:10.291Z,46.57
2019-02-17T06:55:54.684Z,43.63
2019-02-17T06:58:24.993Z,40.63
2019-02-17T07:00:57.830Z,41.80
2019-02-17T07:03:28.383Z,32.70
2019-02-17T07:06:09.574Z,38.50
2019-02-17T07:08:40.141Z,28.37
2019-02-17T07:11:10.511Z,24.80
2019-02-17T07:13:41.382Z,27.53
2019-02-17T07:16:11.675Z,31.00
2019-02-17T07:18:42.914Z,38.90
2019-02-17T07:21:13.690Z,27.37
2019-02-17T07:23:44.024Z,31.00
2019-02-17T07:26:14.461Z,40.40
2019-02-17T07:28:46.221Z,20.97
2019-02-17T07:31:16.670Z,20.53
2019-02-17T07:33:47.070Z,23.80
2019-02-17T07:36:17.646Z,23.70
2019-02-17T07:38:48.334Z,21.17
2019-02-17T07:41:18.676Z,19.97
2019-02-17T07:43:48.982Z,20.73
2019-02-17T07:46:19.269Z,21.33
2019-02-17T07:48:50.040Z,20.53
2019-02-17T07:51:20.582Z,22.33
2019-02-17T07:53:50.913Z,20.80
2019-02-17T07:56:21.590Z,22.07
2019-02-17T07:58:52.397Z,18.57
2019-02-17T08:01:22.689Z,21.07
2019-02-17T08:03:53.543Z,19.30
2019-02-17T08:06:24.312Z,19.70
2019-02-17T08:08:54.603Z,20.70
2019-02-17T08:11:25.017Z,20.70
2019-02-17T08:13:55.752Z,20.53
2019-02-17T08:16:27.003Z,21.73
2019-02-17T08:18:57.333Z,21.00
2019-02-17T08:21:28.127Z,20.20
2019-02-17T08:23:58.554Z,22.30
2019-02-17T08:26:28.845Z,21.57
2019-02-17T08:28:59.646Z,22.87
2019-02-17T08:31:30.005Z,19.67
2019-02-17T08:34:00.352Z,21.23
2019-02-17T08:36:30.980Z,20.50
2019-02-17T08:39:01.710Z,18.67
2019-02-17T08:41:31.989Z,19.53
2019-02-17T08:44:02.620Z,22.13
2019-02-17T08:46:33.027Z,17.77
2019-02-17T08:49:03.731Z,20.03
2019-02-17T08:51:34.256Z,19.07
2019-02-17T08:54:04.604Z,20.70
2019-02-17T08:56:35.010Z,20.70
2019-02-17T08:59:05.390Z,19.47
2019-02-17T09:01:35.703Z,18.73
2019-02-17T09:04:06.086Z,19.40
2019-02-17T09:06:36.815Z,18.33
2019-02-17T09:09:07.354Z,18.83
2019-02-17T09:11:37.894Z,21.20
2019-02-17T09:14:08.551Z,19.97
2019-02-17T09:16:38.856Z,19.37
2019-02-17T09:19:09.460Z,20.03
2019-02-17T09:21:39.770Z,19.50
2019-02-17T09:24:10.530Z,19.83
2019-02-17T09:26:40.934Z,17.37
2019-02-17T09:29:11.200Z,19.27
2019-02-17T09:31:41.551Z,22.07
2019-02-17T09:34:12.203Z,19.87
2019-02-17T09:36:42.577Z,20.73
2019-02-17T09:39:12.862Z,18.43
2019-02-17T09:41:43.582Z,20.73
2019-02-17T09:44:15.475Z,19.07
2019-02-17T09:46:45.771Z,20.77
2019-02-17T09:49:16.450Z,19.70
2019-02-17T09:51:46.961Z,18.40
2019-02-17T09:54:17.606Z,19.10
2019-02-17T09:56:48.023Z,17.67
2019-02-17T09:59:18.304Z,20.10
2019-02-17T10:01:49.005Z,17.63
2019-02-17T10:04:19.474Z,17.03
2019-02-17T10:06:49.736Z,18.87
2019-02-17T10:09:20.345Z,17.93
2019-02-17T10:11:50.863Z,17.77
2019-02-17T10:14:21.132Z,18.70
2019-02-17T10:16:51.766Z,17.13
2019-02-17T10:19:22.462Z,16.90
2019-02-17T10:21:52.896Z,18.30
2019-02-17T10:24:23.241Z,22.20
2019-02-17T10:26:53.518Z,19.00
2019-02-17T10:29:23.943Z,16.13
2019-02-17T10:31:54.440Z,17.67
2019-02-17T10:34:24.836Z,17.33
2019-02-17T10:36:55.611Z,17.07
2019-02-17T10:39:26.267Z,17.13
2019-02-17T10:41:56.591Z,19.33
2019-02-17T10:44:27.208Z,16.80
2019-02-17T10:46:57.859Z,15.83
2019-02-17T10:49:28.198Z,16.10
2019-02-17T10:51:59.727Z,16.77
2019-02-17T10:54:30.059Z,14.87
2019-02-17T10:57:00.770Z,12.67
2019-02-17T10:59:31.197Z,14.17
2019-02-17T11:02:01.615Z,14.70
2019-02-17T11:04:32.149Z,14.60
2019-02-17T11:07:02.831Z,13.97
2019-02-17T11:09:33.166Z,14.20
2019-02-17T11:12:03.535Z,13.57
2019-02-17T11:14:33.980Z,14.20
2019-02-17T11:17:04.413Z,13.13
2019-02-17T11:19:34.800Z,13.77
2019-02-17T11:22:05.602Z,13.40
2019-02-17T11:24:35.950Z,13.17
2019-02-17T11:27:06.659Z,13.63
2019-02-17T11:29:36.952Z,12.33
2019-02-17T11:32:07.415Z,11.73
2019-02-17T11:34:38.188Z,9.87
2019-02-17T11:37:08.479Z,11.73
2019-02-17T11:39:38.789Z,12.03
2019-02-17T11:42:09.511Z,12.27
2019-02-17T11:44:39.904Z,11.50
2019-02-17T11:47:10.261Z,10.63
2019-02-17T11:49:40.779Z,11.93
2019-02-17T11:52:11.151Z,10.07
2019-02-17T11:54:41.440Z,11.03
2019-02-17T11:57:11.843Z,10.73
2019-02-17T11:59:42.146Z,10.90
2019-02-17T12:02:12.782Z,11.33
2019-02-17T12:04:43.076Z,11.83
2019-02-17T12:07:13.418Z,10.13
2019-02-17T12:09:44.100Z,10.20
2019-02-17T12:12:14.598Z,11.07
2019-02-17T12:14:44.892Z,10.43
2019-02-17T12:17:15.727Z,10.60
2019-02-17T12:19:46.540Z,10.23
2019-02-17T12:22:23.943Z,10.23
2019-02-17T12:25:03.418Z,11.50
2019-02-17T12:27:53.898Z,9.67
2019-02-17T12:30:25.580Z,10.13
2019-02-17T12:32:56.027Z,9.50
2019-02-17T12:35:26.731Z,10.33
2019-02-17T12:37:57.011Z,9.87
2019-02-17T12:40:27.366Z,8.47
2019-02-17T12:42:58.094Z,9.00
2019-02-17T12:45:28.402Z,8.93
2019-02-17T12:47:58.764Z,8.93
2019-02-17T12:50:29.513Z,8.23
2019-02-17T12:53:00.059Z,8.10
2019-02-17T12:55:30.350Z,8.70
2019-02-17T12:58:01.075Z,8.53
2019-02-17T13:00:31.746Z,6.60
2019-02-17T13:03:02.317Z,7.57
2019-02-17T13:05:32.646Z,7.60
2019-02-17T13:08:02.997Z,7.53
2019-02-17T13:10:33.662Z,7.50
2019-02-17T13:13:04.820Z,7.90
2019-02-17T13:15:36.130Z,7.73
2019-02-17T13:18:06.829Z,7.23
2019-02-17T13:20:37.528Z,6.10
2019-02-17T13:23:07.833Z,5.73
2019-02-17T13:25:38.463Z,6.33
2019-02-17T13:28:09.069Z,5.17
2019-02-17T13:30:39.398Z,5.80
2019-02-17T13:33:09.869Z,5.60
2019-02-17T13:35:41.168Z,6.50
2019-02-17T13:38:11.856Z,4.83
2019-02-17T13:40:42.467Z,6.13
2019-02-17T13:43:12.799Z,6.13
2019-02-17T13:45:44.865Z,5.77
2019-02-17T13:48:15.653Z,5.83
2019-02-17T13:50:45.940Z,6.10
2019-02-17T13:53:16.290Z,6.43
2019-02-17T13:55:46.901Z,6.17
2019-02-17T13:58:17.382Z,7.20
2019-02-17T14:00:47.696Z,6.93
2019-02-17T14:03:18.365Z,6.60
2019-02-17T14:05:48.647Z,6.03
2019-02-17T14:08:19.336Z,7.03
2019-02-17T14:10:49.618Z,6.73
2019-02-17T14:13:20.095Z,7.33
2019-02-17T14:15:50.726Z,6.97
2019-02-17T14:18:21.187Z,7.50
2019-02-17T14:20:51.561Z,6.50
2019-02-17T14:23:21.973Z,6.73
2019-02-17T14:25:52.259Z,5.53
2019-02-17T14:28:22.675Z,6.07
2019-02-17T14:30:53.266Z,5.50
2019-02-17T14:33:23.810Z,7.23
2019-02-17T14:35:54.200Z,6.97
2019-02-17T14:38:24.932Z,7.47
2019-02-17T14:40:55.239Z,7.00
2019-02-17T14:43:25.684Z,7.07
2019-02-17T14:45:56.032Z,7.27
2019-02-17T14:48:26.358Z,8.13
2019-02-17T14:50:57.061Z,7.90
2019-02-17T14:53:27.638Z,8.53
2019-02-17T14:55:57.963Z,7.50
2019-02-17T14:58:28.676Z,7.33
2019-02-17T15:00:59.471Z,11.90
2019-02-17T15:03:29.762Z,12.40
2019-02-17T15:06:00.456Z,11.50
2019-02-17T15:08:31.297Z,10.00
2019-02-17T15:11:01.689Z,10.77
2019-02-17T15:13:32.066Z,9.00
2019-02-17T15:16:02.358Z,12.20
2019-02-17T15:18:33.007Z,11.67
2019-02-17T15:21:03.826Z,9.97
2019-02-17T15:23:34.168Z,10.57
2019-02-17T15:26:05.024Z,11.13
2019-02-17T15:28:35.684Z,10.97
2019-02-17T15:31:06.028Z,10.40
2019-02-17T15:33:36.435Z,10.63
2019-02-17T15:36:07.034Z,11.77
2019-02-17T15:38:37.340Z,11.83
2019-02-17T15:41:07.676Z,11.60
2019-02-17T15:43:38.005Z,10.70
2019-02-17T15:46:08.421Z,24.70
2019-02-17T15:48:39.111Z,16.23
2019-02-17T15:51:09.458Z,11.87
2019-02-17T15:53:39.881Z,14.27
2019-02-17T15:56:10.676Z,17.13
2019-02-17T15:58:41.053Z,15.13
2019-02-17T16:01:11.391Z,23.10
2019-02-17T16:03:41.935Z,25.23
2019-02-17T16:06:12.234Z,29.10
2019-02-17T16:08:42.577Z,27.07
2019-02-17T16:11:13.146Z,27.60
2019-02-17T16:13:43.790Z,27.40
2019-02-17T16:16:14.551Z,26.93
2019-02-17T16:18:44.989Z,27.60
2019-02-17T16:21:15.311Z,29.67
2019-02-17T16:23:46.060Z,31.50
2019-02-17T16:26:16.384Z,34.17
2019-02-17T16:28:46.681Z,36.13
2019-02-17T16:31:17.445Z,36.23
2019-02-17T16:33:48.017Z,35.93
2019-02-17T16:36:18.311Z,30.23
2019-02-17T16:38:49.029Z,31.13
2019-02-17T16:41:19.710Z,30.70
2019-02-17T16:43:50.035Z,31.90
2019-02-17T16:46:20.863Z,33.10
2019-02-17T16:48:51.522Z,34.10
2019-02-17T16:51:22.058Z,37.33
2019-02-17T16:53:52.439Z,36.73
2019-02-17T16:56:23.112Z,40.00
2019-02-17T16:58:53.475Z,37.73
2019-02-17T17:01:23.751Z,41.27
2019-02-17T17:03:54.385Z,39.93
2019-02-17T17:06:24.659Z,40.60
2019-02-17T17:08:55.131Z,38.70
2019-02-17T17:11:25.811Z,37.30
2019-02-17T17:13:56.225Z,38.00
2019-02-17T17:16:27.419Z,40.53
2019-02-17T17:18:58.093Z,37.70
2019-02-17T17:21:28.383Z,39.57
2019-02-17T17:23:59.355Z,39.70
2019-02-17T17:26:29.650Z,38.57
2019-02-17T17:28:59.925Z,33.07
2019-02-17T17:31:30.579Z,33.17
2019-02-17T17:34:00.908Z,35.70
2019-02-17T17:36:31.193Z,36.37
2019-02-17T17:39:02.899Z,30.63
2019-02-17T17:41:33.260Z,34.10
2019-02-17T17:44:03.706Z,30.97
2019-02-17T17:46:34.334Z,33.10
2019-02-17T17:49:04.924Z,33.73
2019-02-17T17:51:35.302Z,33.03
2019-02-17T17:54:05.827Z,36.23
2019-02-17T17:56:36.128Z,30.87
2019-02-17T17:59:06.840Z,33.23
2019-02-17T18:01:37.523Z,31.13
2019-02-17T18:04:07.879Z,59.47
2019-02-17T18:06:38.487Z,30.77
2019-02-17T18:09:08.905Z,23.77
2019-02-17T18:11:39.250Z,24.60
2019-02-17T18:14:09.659Z,21.03
2019-02-17T18:16:40.332Z,23.23
2019-02-17T18:19:10.630Z,23.83
2019-02-17T18:21:41.059Z,24.17
2019-02-17T18:24:11.543Z,24.27
2019-02-17T18:26:42.156Z,25.90
2019-02-17T18:29:12.837Z,25.53
2019-02-17T18:31:43.170Z,27.27
2019-02-17T18:34:13.593Z,19.17
2019-02-17T18:36:43.971Z,25.03
2019-02-17T18:39:14.328Z,21.23
2019-02-17T18:41:44.611Z,24.80
2019-02-17T18:44:15.194Z,18.00
2019-02-17T18:46:45.680Z,22.50
2019-02-17T18:49:15.992Z,21.93
2019-02-17T18:51:46.696Z,19.07
2019-02-17T18:54:18.309Z,23.43
2019-02-17T18:56:49.103Z,21.27
2019-02-17T18:59:20.405Z,17.50
2019-02-17T19:01:50.691Z,21.60
2019-02-17T19:04:21.329Z,21.97
2019-02-17T19:06:51.596Z,23.87
2019-02-17T19:09:21.885Z,23.17
2019-02-17T19:11:52.479Z,22.20
2019-02-17T19:14:23.184Z,23.20
2019-02-17T19:16:53.456Z,20.60
2019-02-17T19:19:24.254Z,22.43
2019-02-17T19:21:54.881Z,22.60
2019-02-17T19:24:25.201Z,27.13
2019-02-17T19:26:55.857Z,20.50
2019-02-17T19:29:26.174Z,20.67
2019-02-17T19:31:56.912Z,25.13
2019-02-17T19:34:27.287Z,23.93
2019-02-17T19:36:57.567Z,21.03
2019-02-17T19:39:28.051Z,19.87
2019-02-17T19:45:23.010Z,20.00
2019-02-17T19:47:53.755Z,19.90
2019-02-17T19:50:24.661Z,18.53
2019-02-17T19:52:54.917Z,18.50
2019-02-17T19:55:25.403Z,17.70
2019-02-17T19:57:55.895Z,17.90
2019-02-17T20:00:26.228Z,20.47
2019-02-17T20:03:14.570Z,22.33
2019-02-17T20:05:52.021Z,23.17
2019-02-17T20:08:20.289Z,19.87
2019-02-17T20:10:51.150Z,18.03
2019-02-17T20:16:27.591Z,18.17
2019-02-17T20:18:58.197Z,17.47
2019-02-17T20:21:28.630Z,20.20
2019-02-17T20:23:58.915Z,20.37
2019-02-17T20:26:29.827Z,18.17
2019-02-17T20:29:00.103Z,23.03
2019-02-17T20:31:30.454Z,20.57
2019-02-17T20:34:01.063Z,18.97
2019-02-17T20:36:31.429Z,24.27
2019-02-17T20:39:01.821Z,18.73
2019-02-17T20:41:33.155Z,19.47
2019-02-17T20:44:03.452Z,22.27
2019-02-17T20:46:34.266Z,20.93
2019-02-17T20:49:04.635Z,24.60
2019-02-17T20:51:34.964Z,25.20
2019-02-17T20:54:08.510Z,21.73
2019-02-17T20:56:38.994Z,23.03
2019-02-17T20:59:09.268Z,22.90
2019-02-17T21:01:40.012Z,21.93
2019-02-17T21:04:10.367Z,20.37
2019-02-17T21:06:40.687Z,21.20
2019-02-17T21:09:11.451Z,17.77
2019-02-17T21:11:42.402Z,16.13
2019-02-17T21:14:12.763Z,17.30
2019-02-17T21:16:43.658Z,12.30
2019-02-17T21:19:14.395Z,11.63
2019-02-17T21:21:44.893Z,13.10
2019-02-17T21:24:15.250Z,12.70
2019-02-17T21:26:45.945Z,13.60
2019-02-17T21:29:16.229Z,14.27
2019-02-17T21:31:46.663Z,11.93
2019-02-17T21:34:17.265Z,12.97
2019-02-17T21:36:47.737Z,16.07
2019-02-17T21:39:18.434Z,22.47
2019-02-17T21:41:48.811Z,23.97
2019-02-17T21:44:19.131Z,20.53
2019-02-17T21:46:49.910Z,19.70
2019-02-17T21:49:20.202Z,18.60
2019-02-17T21:51:50.570Z,20.03
2019-02-17T21:54:21.255Z,18.73
2019-02-17T21:56:51.718Z,19.60
2019-02-17T21:59:23.067Z,20.53
2019-02-17T22:01:53.925Z,16.23
2019-02-17T22:04:24.279Z,14.77
2019-02-17T22:06:54.603Z,15.27
2019-02-17T22:09:25.307Z,15.47
2019-02-17T22:11:55.758Z,14.27
2019-02-17T22:14:26.377Z,14.90
2019-02-17T22:16:56.872Z,17.60
2019-02-17T22:19:27.168Z,18.43
2019-02-17T22:21:57.823Z,19.27
2019-02-17T22:24:28.624Z,19.13
2019-02-17T22:26:58.968Z,18.73
2019-02-17T22:29:29.551Z,17.43
2019-02-17T22:32:00.398Z,16.63
2019-02-17T22:34:31.275Z,18.70
2019-02-17T22:37:01.785Z,17.87
2019-02-17T22:39:32.272Z,20.83
2019-02-17T22:42:02.598Z,22.33
2019-02-17T22:44:32.964Z,19.77
2019-02-17T22:47:03.337Z,19.53
2019-02-17T22:49:33.679Z,16.90
2019-02-17T22:52:04.345Z,16.80
2019-02-17T22:54:34.718Z,20.00
2019-02-17T22:57:05.208Z,20.80
2019-02-17T22:59:35.603Z,20.00
2019-02-17T23:02:06.881Z,22.20
2019-02-17T23:04:37.163Z,20.80
2019-02-17T23:07:07.831Z,17.83
2019-02-17T23:09:38.114Z,18.00
2019-02-17T23:12:08.431Z,17.17
2019-02-17T23:14:39.057Z,15.70
2019-02-17T23:17:09.586Z,16.07
2019-02-17T23:19:40.247Z,16.03
2019-02-17T23:22:10.670Z,17.00
2019-02-17T23:24:40.969Z,16.37
2019-02-17T23:27:11.759Z,15.93
2019-02-17T23:29:42.122Z,15.70
2019-02-17T23:32:12.446Z,14.97
2019-02-17T23:34:43.124Z,15.63
2019-02-17T23:37:13.673Z,15.53
2019-02-17T23:39:43.938Z,14.17
2019-02-17T23:42:14.733Z,15.03
2019-02-17T23:44:45.240Z,14.87
2019-02-17T23:47:16.701Z,15.27
2019-02-17T23:49:46.974Z,13.23
2019-02-17T23:52:17.311Z,13.60
2019-02-17T23:54:47.969Z,12.67
2019-02-17T23:57:18.686Z,14.57
2019-02-17T23:59:48.966Z,12.83
